createdAt,value
2017-04-14T00:00:43.678Z,60.20
2017-04-14T00:01:42.787Z,60.90
2017-04-14T00:02:41.283Z,60.90
2017-04-14T00:03:39.671Z,60.90
2017-04-14T00:04:38.126Z,61.10
2017-04-14T00:05:36.523Z,61.00
2017-04-14T00:06:34.944Z,61.10
2017-04-14T00:07:33.338Z,61.20
2017-04-14T00:08:31.764Z,60.80
2017-04-14T00:09:30.224Z,61.90
2017-04-14T00:10:29.447Z,61.40
2017-04-14T00:11:27.844Z,61.40
2017-04-14T00:12:26.303Z,61.00
2017-04-14T00:13:24.710Z,61.30
2017-04-14T00:14:23.503Z,61.40
2017-04-14T00:15:21.906Z,61.90
2017-04-14T00:16:20.330Z,61.90
2017-04-14T00:17:19.570Z,61.80
2017-04-14T00:18:18.000Z,61.90
2017-04-14T00:19:16.432Z,61.80
2017-04-14T00:20:14.825Z,61.60
2017-04-14T00:21:13.960Z,62.10
2017-04-14T00:22:12.344Z,61.90
2017-04-14T00:23:10.775Z,61.90
2017-04-14T00:24:09.184Z,61.60
2017-04-14T00:25:07.623Z,61.40
2017-04-14T00:26:06.024Z,61.50
2017-04-14T00:27:04.459Z,61.30
2017-04-14T00:28:02.915Z,61.50
2017-04-14T00:29:01.712Z,61.90
2017-04-14T00:30:00.145Z,62.00
2017-04-14T00:30:59.417Z,61.60
2017-04-14T00:31:57.793Z,61.50
2017-04-14T00:32:56.211Z,61.20
2017-04-14T00:33:54.627Z,61.50
2017-04-14T00:34:52.999Z,62.10
2017-04-14T00:35:51.472Z,62.20
2017-04-14T00:36:49.946Z,62.70
2017-04-14T00:37:48.326Z,62.40
2017-04-14T00:38:47.431Z,62.80
2017-04-14T00:39:45.858Z,63.10
2017-04-14T00:40:44.253Z,63.00
2017-04-14T00:41:43.421Z,63.10
2017-04-14T00:42:41.950Z,64.00
2017-04-14T00:43:40.436Z,64.20
2017-04-14T00:44:39.598Z,64.70
2017-04-14T00:45:38.022Z,64.60
2017-04-14T00:46:36.397Z,65.40
2017-04-14T00:47:35.132Z,65.60
2017-04-14T00:48:33.547Z,65.70
2017-04-14T00:49:32.791Z,65.40
2017-04-14T00:50:31.198Z,65.40
2017-04-14T00:51:29.609Z,65.90
2017-04-14T00:52:28.013Z,66.20
2017-04-14T00:53:26.391Z,66.30
2017-04-14T00:54:24.829Z,66.30
2017-04-14T00:55:23.230Z,66.40
2017-04-14T00:56:21.616Z,66.30
2017-04-14T00:57:19.985Z,66.00
2017-04-14T00:58:19.136Z,66.10
2017-04-14T00:59:18.293Z,66.00
2017-04-14T01:00:16.763Z,66.00
2017-04-14T01:01:15.567Z,66.30
2017-04-14T01:02:14.728Z,66.10
2017-04-14T01:03:13.211Z,66.30
2017-04-14T01:04:11.716Z,66.30
2017-04-14T01:05:10.427Z,66.30
2017-04-14T01:06:09.599Z,66.10
2017-04-14T01:07:08.014Z,66.20
2017-04-14T01:08:06.740Z,66.30
2017-04-14T01:09:05.832Z,66.40
2017-04-14T01:10:05.040Z,66.40
2017-04-14T01:11:03.515Z,66.50
2017-04-14T01:12:01.916Z,66.50
2017-04-14T01:13:00.325Z,66.40
2017-04-14T01:13:58.845Z,66.50
2017-04-14T01:14:57.261Z,66.50
2017-04-14T01:15:55.676Z,66.60
2017-04-14T01:16:54.138Z,66.50
2017-04-14T01:17:52.565Z,66.50
2017-04-14T01:18:50.969Z,66.60
2017-04-14T01:19:49.663Z,66.50
2017-04-14T01:20:48.398Z,66.80
2017-04-14T01:21:46.793Z,67.10
2017-04-14T01:22:45.221Z,67.20
2017-04-14T01:23:43.590Z,67.10
2017-04-14T01:24:41.996Z,67.00
2017-04-14T01:25:40.414Z,67.50
2017-04-14T01:26:38.798Z,67.10
2017-04-14T01:27:37.280Z,67.00
2017-04-14T01:28:35.705Z,67.10
2017-04-14T01:29:34.120Z,67.30
2017-04-14T01:30:33.324Z,66.60
2017-04-14T01:31:32.476Z,66.50
2017-04-14T01:32:31.197Z,66.60
2017-04-14T01:33:29.554Z,66.60
2017-04-14T01:34:28.790Z,66.80
2017-04-14T01:35:27.247Z,66.60
2017-04-14T01:36:25.629Z,66.70
2017-04-14T01:37:24.039Z,66.40
2017-04-14T01:39:21.314Z,66.70
2017-04-14T01:40:19.711Z,66.60
2017-04-14T01:41:18.169Z,66.60
2017-04-14T01:42:16.591Z,66.40
2017-04-14T01:43:15.314Z,66.40
2017-04-14T01:44:13.741Z,66.60
2017-04-14T01:45:12.919Z,66.50
2017-04-14T01:46:11.426Z,66.40
2017-04-14T01:47:09.899Z,66.20
2017-04-14T01:48:08.294Z,66.10
2017-04-14T01:49:06.669Z,66.10
2017-04-14T01:50:05.119Z,66.00
2017-04-14T01:51:03.902Z,65.70
2017-04-14T01:52:02.410Z,65.90
2017-04-14T01:53:00.942Z,65.60
2017-04-14T01:53:59.373Z,65.70
2017-04-14T01:54:57.809Z,65.80
2017-04-14T01:55:56.191Z,65.90
2017-04-14T01:56:54.591Z,66.00
2017-04-14T01:57:53.735Z,66.00
2017-04-14T01:58:52.101Z,65.90
2017-04-14T01:59:50.532Z,66.00
2017-04-14T02:00:48.960Z,66.20
2017-04-14T02:01:47.380Z,66.30
2017-04-14T02:02:45.791Z,65.80
2017-04-14T02:03:44.238Z,65.60
2017-04-14T02:04:42.724Z,65.60
2017-04-14T02:05:41.123Z,65.50
2017-04-14T02:06:40.243Z,65.90
2017-04-14T02:07:39.021Z,66.20
2017-04-14T02:08:37.421Z,65.90
2017-04-14T02:09:36.579Z,65.90
2017-04-14T02:10:34.989Z,65.70
2017-04-14T02:11:33.367Z,65.80
2017-04-14T02:12:31.783Z,66.10
2017-04-14T02:13:30.226Z,65.90
2017-04-14T02:14:28.686Z,66.00
2017-04-14T02:15:27.558Z,66.10
2017-04-14T02:16:26.254Z,66.20
2017-04-14T02:17:25.375Z,66.30
2017-04-14T02:18:23.857Z,66.30
2017-04-14T02:19:22.235Z,66.40
2017-04-14T02:20:21.433Z,66.40
2017-04-14T02:21:20.903Z,66.40
2017-04-14T02:22:19.358Z,66.40
2017-04-14T02:23:18.060Z,66.30
2017-04-14T02:24:16.433Z,66.40
2017-04-14T02:25:14.816Z,66.30
2017-04-14T02:26:13.736Z,66.30
2017-04-14T02:27:12.103Z,66.10
2017-04-14T02:28:10.535Z,66.40
2017-04-14T02:29:09.048Z,66.30
2017-04-14T02:30:07.431Z,66.30
2017-04-14T02:31:05.828Z,66.00
2017-04-14T02:32:04.526Z,66.00
2017-04-14T02:33:02.972Z,66.10
2017-04-14T02:34:01.375Z,65.90
2017-04-14T02:35:00.091Z,65.60
2017-04-14T02:35:58.493Z,65.70
2017-04-14T02:36:56.962Z,65.80
2017-04-14T02:37:55.350Z,65.70
2017-04-14T02:38:53.795Z,65.70
2017-04-14T02:39:52.192Z,65.80
2017-04-14T02:40:50.680Z,65.60
2017-04-14T02:41:49.835Z,65.20
2017-04-14T02:42:48.325Z,65.00
2017-04-14T02:43:46.753Z,65.00
2017-04-14T02:44:45.142Z,65.00
2017-04-14T02:45:43.565Z,64.80
2017-04-14T02:46:41.974Z,65.20
2017-04-14T02:47:40.354Z,64.50
2017-04-14T02:48:38.836Z,64.90
2017-04-14T02:49:37.218Z,64.70
2017-04-14T02:50:36.714Z,64.60
2017-04-14T02:51:35.117Z,64.70
2017-04-14T02:52:33.508Z,64.90
2017-04-14T02:53:31.911Z,64.70
2017-04-14T02:54:30.319Z,64.80
2017-04-14T02:55:28.701Z,65.00
2017-04-14T02:56:27.100Z,65.20
2017-04-14T02:57:25.517Z,65.20
2017-04-14T02:58:23.963Z,64.90
2017-04-14T02:59:22.373Z,65.00
2017-04-14T03:00:20.810Z,65.00
2017-04-14T03:01:25.885Z,65.30
2017-04-14T03:02:24.347Z,65.20
2017-04-14T03:03:22.749Z,65.40
2017-04-14T03:04:21.162Z,65.40
2017-04-14T03:05:20.000Z,65.20
2017-04-14T03:06:18.403Z,65.30
2017-04-14T03:07:16.813Z,65.30
2017-04-14T03:08:15.218Z,65.30
2017-04-14T03:09:13.653Z,65.50
2017-04-14T03:11:22.046Z,65.40
2017-04-14T03:12:20.510Z,65.30
2017-04-14T03:13:18.920Z,65.00
2017-04-14T03:14:17.293Z,65.20
2017-04-14T03:15:15.691Z,64.90
2017-04-14T03:16:14.831Z,64.80
2017-04-14T03:17:13.280Z,65.00
2017-04-14T03:18:11.677Z,65.20
2017-04-14T03:19:14.639Z,65.20
2017-04-14T03:20:13.010Z,65.50
2017-04-14T03:21:11.358Z,65.60
2017-04-14T03:22:09.825Z,65.40
2017-04-14T03:23:08.238Z,65.10
2017-04-14T03:24:06.664Z,65.00
2017-04-14T03:25:05.070Z,64.70
2017-04-14T03:26:04.359Z,64.50
2017-04-14T03:27:03.439Z,64.50
2017-04-14T03:28:02.736Z,64.60
2017-04-14T03:29:01.159Z,64.70
2017-04-14T03:29:59.612Z,64.70
2017-04-14T03:30:58.049Z,64.50
2017-04-14T03:31:56.468Z,64.30
2017-04-14T03:32:54.882Z,64.40
2017-04-14T03:33:53.319Z,64.30
2017-04-14T03:34:51.715Z,64.60
2017-04-14T03:35:50.087Z,65.50
2017-04-14T03:36:48.515Z,64.80
2017-04-14T03:37:47.231Z,65.70
2017-04-14T03:38:45.645Z,65.10
2017-04-14T03:39:44.810Z,65.00
2017-04-14T03:40:43.289Z,65.00
2017-04-14T03:41:41.682Z,65.20
2017-04-14T03:42:40.154Z,65.10
2017-04-14T03:43:38.576Z,65.20
2017-04-14T03:44:37.073Z,65.30
2017-04-14T03:45:35.497Z,65.00
2017-04-14T03:46:33.928Z,64.80
2017-04-14T03:47:33.229Z,65.00
2017-04-14T03:48:31.896Z,65.10
2017-04-14T03:49:31.061Z,65.20
2017-04-14T03:50:29.779Z,65.10
2017-04-14T03:51:28.560Z,65.30
2017-04-14T03:52:27.021Z,65.20
2017-04-14T03:53:26.935Z,65.10
2017-04-14T03:54:25.385Z,65.30
2017-04-14T03:55:23.821Z,65.20
2017-04-14T03:56:22.234Z,65.50
2017-04-14T03:57:20.660Z,65.50
2017-04-14T03:58:19.043Z,65.60
2017-04-14T03:59:17.441Z,65.80
2017-04-14T04:00:15.825Z,65.60
2017-04-14T04:01:14.191Z,65.60
2017-04-14T04:02:12.582Z,65.60
2017-04-14T04:03:10.943Z,65.40
2017-04-14T04:04:20.003Z,65.10
2017-04-14T04:05:19.177Z,65.40
2017-04-14T04:06:17.572Z,64.80
2017-04-14T04:07:16.726Z,64.70
2017-04-14T04:08:15.132Z,64.80
2017-04-14T04:09:13.526Z,64.60
2017-04-14T04:10:11.914Z,64.50
2017-04-14T04:11:10.317Z,64.20
2017-04-14T04:12:08.724Z,64.30
2017-04-14T04:13:07.112Z,64.40
2017-04-14T04:14:06.258Z,64.10
2017-04-14T04:15:05.419Z,63.70
2017-04-14T04:16:03.840Z,63.60
2017-04-14T04:17:02.236Z,63.40
2017-04-14T04:18:00.611Z,63.50
2017-04-14T04:18:59.337Z,63.90
2017-04-14T04:19:57.731Z,65.00
2017-04-14T04:20:56.135Z,64.00
2017-04-14T04:21:57.422Z,64.00
2017-04-14T04:22:55.852Z,64.00
2017-04-14T04:23:54.243Z,63.90
2017-04-14T04:24:53.381Z,64.00
2017-04-14T04:25:51.798Z,63.70
2017-04-14T04:26:50.197Z,63.80
2017-04-14T04:27:48.867Z,63.70
2017-04-14T04:28:47.229Z,63.60
2017-04-14T04:29:45.584Z,63.60
2017-04-14T04:30:43.934Z,63.60
2017-04-14T04:31:47.965Z,63.60
2017-04-14T04:32:51.883Z,63.50
2017-04-14T04:34:21.424Z,63.30
2017-04-14T04:35:20.255Z,63.50
2017-04-14T04:36:18.637Z,63.50
2017-04-14T04:37:17.031Z,64.20
2017-04-14T04:38:15.499Z,63.10
2017-04-14T04:39:13.876Z,63.40
2017-04-14T04:40:12.273Z,63.20
2017-04-14T04:41:10.693Z,63.50
2017-04-14T04:42:09.084Z,63.30
2017-04-14T04:43:07.441Z,63.40
2017-04-14T04:45:05.844Z,63.10
2017-04-14T04:46:04.962Z,62.30
2017-04-14T04:47:03.881Z,62.60
2017-04-14T04:48:02.269Z,62.50
2017-04-14T04:49:03.060Z,62.60
2017-04-14T04:50:01.479Z,62.60
2017-04-14T04:51:00.675Z,62.30
2017-04-14T04:51:59.120Z,62.40
2017-04-14T04:52:57.523Z,63.00
2017-04-14T04:53:55.915Z,62.90
2017-04-14T04:54:54.324Z,63.00
2017-04-14T04:55:52.727Z,63.10
2017-04-14T04:56:51.147Z,63.40
2017-04-14T04:57:49.594Z,63.20
2017-04-14T04:58:47.961Z,63.20
2017-04-14T04:59:46.651Z,62.80
2017-04-14T05:00:45.061Z,62.70
2017-04-14T05:01:44.189Z,63.10
2017-04-14T05:02:42.599Z,63.20
2017-04-14T05:03:41.008Z,63.30
2017-04-14T05:04:39.674Z,63.60
2017-04-14T05:05:38.825Z,63.60
2017-04-14T05:06:37.218Z,63.40
2017-04-14T05:07:36.388Z,63.50
2017-04-14T05:08:34.789Z,63.50
2017-04-14T05:09:33.254Z,63.40
2017-04-14T05:10:31.654Z,63.10
2017-04-14T05:11:30.065Z,63.10
2017-04-14T05:12:28.470Z,62.80
2017-04-14T05:13:26.847Z,62.80
2017-04-14T05:14:25.281Z,62.70
2017-04-14T05:15:24.500Z,63.50
2017-04-14T05:16:22.899Z,62.90
2017-04-14T05:17:21.327Z,63.10
2017-04-14T05:18:19.788Z,62.90
2017-04-14T05:19:18.166Z,62.80
2017-04-14T05:20:17.307Z,62.40
2017-04-14T05:21:15.732Z,62.90
2017-04-14T05:22:14.128Z,63.50
2017-04-14T05:23:12.897Z,63.10
2017-04-14T05:24:11.378Z,63.40
2017-04-14T05:25:09.793Z,63.30
2017-04-14T05:26:08.249Z,63.10
2017-04-14T05:27:06.796Z,63.10
2017-04-14T05:28:05.625Z,62.90
2017-04-14T05:29:04.037Z,62.90
2017-04-14T05:30:02.419Z,62.90
2017-04-14T05:31:01.111Z,62.80
2017-04-14T05:32:00.478Z,62.80
2017-04-14T05:32:59.023Z,62.90
2017-04-14T05:33:57.419Z,62.80
2017-04-14T05:34:55.795Z,62.60
2017-04-14T05:35:54.929Z,62.70
2017-04-14T05:36:54.505Z,62.50
2017-04-14T05:37:53.194Z,62.60
2017-04-14T05:38:52.423Z,62.50
2017-04-14T05:39:50.860Z,62.70
2017-04-14T05:40:54.047Z,62.70
2017-04-14T05:41:52.427Z,62.60
2017-04-14T05:42:50.842Z,63.20
2017-04-14T05:43:49.250Z,63.40
2017-04-14T05:44:47.969Z,63.80
2017-04-14T05:45:47.202Z,64.00
2017-04-14T05:46:45.660Z,64.20
2017-04-14T05:47:44.051Z,64.50
2017-04-14T05:48:42.489Z,64.50
2017-04-14T05:49:40.913Z,64.70
2017-04-14T05:50:39.299Z,65.00
2017-04-14T05:51:37.705Z,65.20
2017-04-14T05:52:36.137Z,65.50
2017-04-14T05:53:34.552Z,65.60
2017-04-14T05:54:32.985Z,65.60
2017-04-14T05:55:31.370Z,65.60
2017-04-14T05:56:29.775Z,66.00
2017-04-14T05:57:28.168Z,65.90
2017-04-14T05:58:26.590Z,65.90
2017-04-14T05:59:24.994Z,65.70
2017-04-14T06:00:23.457Z,65.40
2017-04-14T06:01:22.637Z,65.20
2017-04-14T06:02:21.770Z,65.10
2017-04-14T06:03:22.536Z,65.00
2017-04-14T06:04:20.971Z,65.30
2017-04-14T06:05:19.396Z,65.20
2017-04-14T06:06:17.818Z,65.20
2017-04-14T06:07:16.989Z,65.40
2017-04-14T06:08:15.415Z,65.20
2017-04-14T06:09:14.623Z,65.10
2017-04-14T06:10:13.079Z,65.00
2017-04-14T06:11:12.619Z,64.90
2017-04-14T06:12:11.001Z,64.90
2017-04-14T06:13:09.668Z,64.60
2017-04-14T06:14:08.101Z,64.60
2017-04-14T06:15:06.512Z,64.60
2017-04-14T06:16:04.916Z,64.70
2017-04-14T06:17:03.297Z,64.60
2017-04-14T06:18:02.084Z,64.10
2017-04-14T06:19:00.521Z,63.40
2017-04-14T06:19:58.960Z,63.10
2017-04-14T06:20:57.337Z,62.80
2017-04-14T06:21:55.746Z,63.10
2017-04-14T06:22:54.889Z,63.30
2017-04-14T06:23:53.379Z,63.60
2017-04-14T06:24:51.828Z,62.90
2017-04-14T06:25:50.231Z,62.50
2017-04-14T06:26:48.657Z,62.70
2017-04-14T06:27:47.068Z,63.00
2017-04-14T06:28:45.467Z,62.50
2017-04-14T06:29:43.842Z,62.60
2017-04-14T06:30:42.262Z,60.30
2017-04-14T06:31:40.665Z,59.80
2017-04-14T06:32:39.800Z,60.20
2017-04-14T06:33:38.304Z,60.00
2017-04-14T06:34:36.708Z,60.30
2017-04-14T06:35:35.115Z,60.20
2017-04-14T06:36:33.571Z,60.20
2017-04-14T06:37:32.075Z,60.00
2017-04-14T06:38:30.528Z,59.80
2017-04-14T06:39:28.989Z,59.80
2017-04-14T06:40:27.431Z,59.90
2017-04-14T06:41:25.824Z,59.40
2017-04-14T06:42:24.212Z,59.30
2017-04-14T06:43:22.663Z,59.10
2017-04-14T06:44:21.834Z,58.70
2017-04-14T06:45:20.318Z,58.60
2017-04-14T06:46:18.703Z,58.10
2017-04-14T06:47:17.081Z,58.10
2017-04-14T06:48:15.477Z,58.20
2017-04-14T06:49:14.606Z,58.60
2017-04-14T06:50:13.011Z,58.30
2017-04-14T06:51:11.426Z,58.20
2017-04-14T06:52:09.834Z,57.70
2017-04-14T06:53:08.220Z,57.70
2017-04-14T06:54:06.663Z,57.90
2017-04-14T06:55:05.069Z,57.70
2017-04-14T06:56:03.502Z,57.50
2017-04-14T06:57:01.968Z,57.50
2017-04-14T06:58:00.377Z,57.50
2017-04-14T06:58:59.517Z,57.40
2017-04-14T06:59:58.455Z,57.40
2017-04-14T07:00:57.157Z,57.30
2017-04-14T07:01:55.612Z,57.10
2017-04-14T07:02:55.566Z,56.90
2017-04-14T07:03:54.466Z,56.90
2017-04-14T07:04:53.164Z,56.70
2017-04-14T07:05:51.584Z,57.20
2017-04-14T07:06:50.009Z,56.80
2017-04-14T07:07:48.373Z,56.60
2017-04-14T07:08:46.779Z,56.10
2017-04-14T07:09:45.275Z,55.90
2017-04-14T07:10:43.758Z,54.50
2017-04-14T07:11:42.238Z,54.80
2017-04-14T07:12:40.661Z,54.30
2017-04-14T07:13:40.513Z,55.00
2017-04-14T07:14:38.990Z,54.70
2017-04-14T07:15:37.439Z,54.70
2017-04-14T07:16:36.025Z,55.10
2017-04-14T07:17:34.677Z,55.10
2017-04-14T07:18:33.143Z,54.20
2017-04-14T07:19:31.707Z,54.20
2017-04-14T07:20:30.318Z,53.70
2017-04-14T07:21:29.216Z,53.10
2017-04-14T07:22:28.526Z,52.30
2017-04-14T07:23:27.128Z,52.10
2017-04-14T07:24:25.619Z,52.20
2017-04-14T07:25:24.386Z,52.00
2017-04-14T07:26:22.829Z,52.10
2017-04-14T07:27:21.211Z,51.50
2017-04-14T07:28:19.611Z,51.70
2017-04-14T07:29:18.321Z,51.50
2017-04-14T07:30:16.759Z,51.40
2017-04-14T07:31:15.525Z,51.50
2017-04-14T07:32:13.908Z,51.50
2017-04-14T07:33:12.617Z,51.60
2017-04-14T07:34:11.007Z,51.70
2017-04-14T07:35:09.409Z,51.00
2017-04-14T07:36:07.826Z,51.10
2017-04-14T07:37:06.263Z,51.00
2017-04-14T07:38:04.667Z,50.70
2017-04-14T07:39:09.619Z,50.80
2017-04-14T07:40:08.468Z,50.80
2017-04-14T07:41:06.899Z,50.70
2017-04-14T07:42:05.411Z,49.90
2017-04-14T07:43:03.863Z,50.00
2017-04-14T07:44:02.316Z,50.70
2017-04-14T07:45:00.738Z,50.70
2017-04-14T07:45:59.145Z,49.90
2017-04-14T07:46:57.569Z,49.80
2017-04-14T07:47:56.290Z,49.50
2017-04-14T07:48:54.699Z,49.40
2017-04-14T07:49:53.127Z,49.60
2017-04-14T07:50:52.166Z,49.60
2017-04-14T07:51:50.607Z,49.60
2017-04-14T07:52:49.445Z,49.10
2017-04-14T07:53:48.685Z,48.30
2017-04-14T07:54:47.865Z,47.90
2017-04-14T07:55:47.048Z,48.30
2017-04-14T07:56:46.244Z,48.00
2017-04-14T07:57:45.449Z,47.90
2017-04-14T07:58:43.878Z,47.90
2017-04-14T07:59:42.790Z,47.60
2017-04-14T08:00:41.197Z,47.70
2017-04-14T08:01:39.671Z,47.20
2017-04-14T08:02:38.260Z,47.30
2017-04-14T08:03:36.673Z,47.00
2017-04-14T08:04:35.131Z,47.80
2017-04-14T08:05:34.341Z,47.30
2017-04-14T08:06:32.755Z,47.40
2017-04-14T08:07:31.198Z,46.80
2017-04-14T08:08:29.651Z,46.70
2017-04-14T08:09:28.055Z,46.20
2017-04-14T08:10:28.105Z,46.10
2017-04-14T08:11:27.290Z,46.10
2017-04-14T08:12:26.455Z,46.40
2017-04-14T08:13:24.985Z,46.20
2017-04-14T08:14:23.480Z,46.10
2017-04-14T08:15:21.961Z,46.70
2017-04-14T08:16:20.410Z,46.60
2017-04-14T08:17:18.901Z,46.50
2017-04-14T08:18:17.397Z,46.70
2017-04-14T08:19:15.963Z,47.00
2017-04-14T08:20:14.408Z,47.00
2017-04-14T08:21:12.871Z,47.10
2017-04-14T08:22:11.302Z,47.00
2017-04-14T08:23:10.258Z,46.50
2017-04-14T08:24:09.485Z,46.40
2017-04-14T08:25:07.996Z,47.40
2017-04-14T08:26:06.410Z,47.70
2017-04-14T08:27:05.572Z,48.00
2017-04-14T08:28:04.043Z,47.40
2017-04-14T08:29:02.544Z,47.10
2017-04-14T08:30:00.994Z,46.80
2017-04-14T08:30:59.497Z,46.50
2017-04-14T08:31:57.936Z,46.60
2017-04-14T08:32:56.382Z,46.70
2017-04-14T08:33:54.903Z,46.60
2017-04-14T08:34:53.490Z,46.30
2017-04-14T08:35:52.043Z,46.50
2017-04-14T08:36:50.467Z,47.10
2017-04-14T08:37:48.959Z,47.20
2017-04-14T08:38:47.372Z,46.40
2017-04-14T08:39:45.867Z,46.80
2017-04-14T08:40:44.304Z,46.60
2017-04-14T08:41:42.984Z,46.60
2017-04-14T08:42:41.398Z,46.60
2017-04-14T08:43:39.850Z,46.10
2017-04-14T08:44:38.303Z,46.10
2017-04-14T08:45:36.818Z,45.90
2017-04-14T08:46:35.600Z,45.40
2017-04-14T08:47:34.029Z,45.50
2017-04-14T08:48:32.562Z,45.20
2017-04-14T08:49:31.058Z,46.10
2017-04-14T08:50:29.479Z,44.90
2017-04-14T08:51:27.940Z,44.90
2017-04-14T08:52:26.386Z,45.30
2017-04-14T08:53:24.844Z,45.50
2017-04-14T08:54:23.249Z,45.50
2017-04-14T08:55:21.730Z,45.50
2017-04-14T08:56:20.274Z,44.90
2017-04-14T08:57:18.734Z,45.20
2017-04-14T08:58:17.717Z,45.10
2017-04-14T08:59:16.104Z,45.30
2017-04-14T09:00:14.651Z,45.20
2017-04-14T09:01:13.072Z,44.80
2017-04-14T09:02:11.519Z,45.00
2017-04-14T09:03:10.309Z,44.40
2017-04-14T09:04:08.861Z,44.20
2017-04-14T09:05:08.225Z,43.40
2017-04-14T09:06:06.752Z,43.60
2017-04-14T09:07:05.179Z,43.80
2017-04-14T09:08:03.679Z,43.60
2017-04-14T09:09:02.091Z,43.90
2017-04-14T09:10:00.553Z,43.60
2017-04-14T09:10:58.960Z,43.00
2017-04-14T09:11:57.392Z,42.50
2017-04-14T09:12:56.577Z,42.80
2017-04-14T09:13:55.800Z,42.80
2017-04-14T09:14:54.260Z,43.50
2017-04-14T09:15:52.716Z,43.30
2017-04-14T09:16:51.877Z,43.20
2017-04-14T09:17:50.264Z,42.70
2017-04-14T09:18:48.728Z,42.20
2017-04-14T09:19:47.910Z,41.70
2017-04-14T09:20:46.307Z,41.70
2017-04-14T09:21:44.870Z,42.00
2017-04-14T09:22:44.030Z,41.50
2017-04-14T09:23:42.754Z,41.90
2017-04-14T09:24:41.200Z,41.60
2017-04-14T09:25:40.370Z,41.80
2017-04-14T09:26:39.083Z,42.30
2017-04-14T09:27:38.159Z,42.20
2017-04-14T09:28:36.565Z,42.30
2017-04-14T09:29:35.012Z,41.80
2017-04-14T09:30:33.480Z,41.30
2017-04-14T09:31:31.869Z,41.40
2017-04-14T09:32:30.287Z,41.10
2017-04-14T09:33:28.727Z,41.30
2017-04-14T09:34:27.904Z,41.20
2017-04-14T09:35:26.332Z,41.10
2017-04-14T09:36:24.747Z,39.70
2017-04-14T09:37:23.179Z,40.40
2017-04-14T09:38:21.581Z,40.70
2017-04-14T09:39:20.065Z,39.70
2017-04-14T09:40:18.477Z,39.30
2017-04-14T09:41:16.897Z,39.30
2017-04-14T09:42:15.328Z,39.80
2017-04-14T09:43:13.723Z,39.70
2017-04-14T09:44:12.170Z,40.40
2017-04-14T09:45:10.767Z,40.30
2017-04-14T09:46:09.265Z,40.40
2017-04-14T09:47:07.683Z,40.40
2017-04-14T09:48:06.124Z,40.30
2017-04-14T09:49:04.547Z,40.70
2017-04-14T09:50:03.085Z,40.20
2017-04-14T09:51:01.559Z,40.80
2017-04-14T09:51:59.971Z,41.60
2017-04-14T09:52:58.387Z,41.00
2017-04-14T09:53:56.763Z,40.90
2017-04-14T09:54:55.144Z,41.40
2017-04-14T09:55:54.488Z,40.30
2017-04-14T09:56:53.000Z,40.10
2017-04-14T09:57:51.400Z,40.00
2017-04-14T09:58:49.799Z,40.00
2017-04-14T09:59:48.247Z,39.50
2017-04-14T10:00:46.648Z,39.60
2017-04-14T10:01:45.079Z,39.40
2017-04-14T10:02:43.579Z,39.30
2017-04-14T10:03:42.033Z,39.30
2017-04-14T10:04:41.196Z,39.50
2017-04-14T10:05:39.646Z,39.20
2017-04-14T10:06:38.075Z,40.20
2017-04-14T10:07:36.471Z,40.90
2017-04-14T10:08:35.707Z,41.00
2017-04-14T10:09:34.840Z,40.00
2017-04-14T10:10:34.006Z,40.20
2017-04-14T10:11:32.398Z,39.20
2017-04-14T10:12:31.517Z,39.40
2017-04-14T10:13:29.911Z,38.70
2017-04-14T10:14:28.346Z,39.00
2017-04-14T10:15:26.766Z,39.10
2017-04-14T10:16:25.193Z,37.90
2017-04-14T10:17:23.668Z,38.30
2017-04-14T10:18:22.085Z,37.00
2017-04-14T10:19:20.514Z,36.30
2017-04-14T10:20:18.969Z,36.70
2017-04-14T10:21:17.383Z,36.20
2017-04-14T10:22:15.858Z,35.40
2017-04-14T10:23:14.346Z,36.00
2017-04-14T10:24:15.678Z,35.80
2017-04-14T10:25:14.197Z,35.30
2017-04-14T10:26:12.647Z,35.50
2017-04-14T10:27:11.103Z,35.60
2017-04-14T10:28:10.453Z,35.30
2017-04-14T10:29:09.664Z,34.80
2017-04-14T10:30:08.106Z,35.50
2017-04-14T10:31:07.271Z,36.10
2017-04-14T10:32:05.772Z,35.50
2017-04-14T10:33:04.192Z,34.20
2017-04-14T10:34:02.627Z,34.50
2017-04-14T10:35:01.408Z,35.00
2017-04-14T10:35:59.867Z,35.20
2017-04-14T10:36:58.294Z,34.80
2017-04-14T10:37:56.792Z,35.20
2017-04-14T10:38:55.953Z,35.60
2017-04-14T10:39:54.379Z,34.90
2017-04-14T10:40:52.783Z,35.20
2017-04-14T10:41:51.324Z,35.00
2017-04-14T10:42:49.742Z,35.30
2017-04-14T10:43:48.333Z,35.80
2017-04-14T10:44:46.808Z,36.20
2017-04-14T10:45:45.440Z,35.80
2017-04-14T10:46:43.982Z,35.80
2017-04-14T10:47:42.361Z,35.90
2017-04-14T10:48:41.520Z,36.10
2017-04-14T10:49:40.076Z,36.10
2017-04-14T10:50:38.625Z,36.10
2017-04-14T10:51:37.043Z,36.40
2017-04-14T10:52:35.451Z,36.60
2017-04-14T10:53:33.874Z,37.70
2017-04-14T10:54:32.278Z,37.30
2017-04-14T10:55:30.737Z,37.00
2017-04-14T10:56:29.180Z,37.10
2017-04-14T10:57:27.640Z,37.10
2017-04-14T10:58:26.084Z,37.20
2017-04-14T10:59:24.491Z,37.70
2017-04-14T11:00:22.931Z,37.40
2017-04-14T11:01:21.680Z,37.50
2017-04-14T11:02:20.821Z,37.50
2017-04-14T11:03:19.304Z,37.30
2017-04-14T11:04:17.725Z,37.30
2017-04-14T11:05:16.127Z,37.50
2017-04-14T11:06:14.610Z,37.20
2017-04-14T11:07:13.123Z,37.40
2017-04-14T11:08:11.627Z,37.60
2017-04-14T11:09:10.056Z,37.60
2017-04-14T11:10:09.307Z,37.50
2017-04-14T11:11:07.776Z,37.50
2017-04-14T11:12:06.246Z,37.30
2017-04-14T11:13:04.820Z,37.70
2017-04-14T11:14:03.400Z,37.70
2017-04-14T11:15:01.865Z,37.90
2017-04-14T11:16:00.313Z,38.00
2017-04-14T11:16:58.755Z,38.00
2017-04-14T11:17:57.196Z,37.50
2017-04-14T11:18:55.626Z,37.60
2017-04-14T11:19:54.043Z,38.30
2017-04-14T11:20:52.468Z,39.20
2017-04-14T11:21:50.883Z,39.10
2017-04-14T11:22:49.387Z,38.50
2017-04-14T11:23:47.997Z,38.70
2017-04-14T11:24:46.571Z,38.90
2017-04-14T11:25:45.120Z,39.20
2017-04-14T11:26:43.616Z,39.20
2017-04-14T11:27:42.174Z,38.90
2017-04-14T11:28:40.698Z,39.90
2017-04-14T11:29:39.181Z,38.70
2017-04-14T11:30:37.663Z,38.90
2017-04-14T11:31:36.105Z,38.80
2017-04-14T11:32:35.276Z,39.10
2017-04-14T11:33:33.720Z,38.80
2017-04-14T11:34:32.161Z,39.00
2017-04-14T11:35:30.554Z,38.90
2017-04-14T11:36:29.328Z,38.80
2017-04-14T11:37:28.055Z,38.60
2017-04-14T11:38:26.439Z,39.20
2017-04-14T11:39:24.912Z,40.10
2017-04-14T11:40:23.342Z,38.90
2017-04-14T11:41:21.797Z,38.20
2017-04-14T11:42:20.501Z,38.40
2017-04-14T11:43:19.043Z,39.00
2017-04-14T11:44:18.186Z,39.40
2017-04-14T11:45:16.607Z,39.30
2017-04-14T11:46:15.044Z,38.50
2017-04-14T11:47:13.476Z,38.40
2017-04-14T11:48:11.879Z,38.60
2017-04-14T11:49:10.319Z,38.90
2017-04-14T11:50:08.713Z,38.80
2017-04-14T11:51:07.149Z,38.70
2017-04-14T11:52:05.567Z,37.80
2017-04-14T11:53:04.164Z,37.20
2017-04-14T11:54:07.359Z,37.90
2017-04-14T11:55:05.929Z,38.70
2017-04-14T11:56:04.346Z,39.10
2017-04-14T11:57:02.817Z,39.40
2017-04-14T11:58:01.308Z,39.10
2017-04-14T11:58:59.777Z,38.60
2017-04-14T11:59:58.834Z,38.80
2017-04-14T12:00:57.314Z,38.60
2017-04-14T12:01:55.750Z,38.00
2017-04-14T12:02:54.173Z,38.50
2017-04-14T12:03:52.631Z,38.20
2017-04-14T12:04:51.055Z,38.30
2017-04-14T12:05:49.510Z,38.50
2017-04-14T12:06:47.972Z,38.70
2017-04-14T12:07:46.402Z,38.30
2017-04-14T12:08:44.849Z,38.50
2017-04-14T12:09:43.283Z,38.60
2017-04-14T12:10:41.688Z,38.30
2017-04-14T12:11:40.493Z,38.50
2017-04-14T12:12:39.322Z,38.90
2017-04-14T12:13:37.871Z,39.00
2017-04-14T12:14:36.315Z,39.30
2017-04-14T12:15:34.778Z,39.30
2017-04-14T12:16:33.214Z,39.40
2017-04-14T12:17:31.707Z,38.90
2017-04-14T12:18:30.160Z,39.20
2017-04-14T12:19:28.527Z,38.60
2017-04-14T12:20:26.985Z,38.60
2017-04-14T12:21:25.386Z,39.20
2017-04-14T12:22:24.549Z,37.80
2017-04-14T12:23:22.920Z,39.10
2017-04-14T12:24:21.387Z,39.20
2017-04-14T12:25:19.952Z,38.90
2017-04-14T12:26:18.383Z,38.50
2017-04-14T12:27:16.780Z,38.70
2017-04-14T12:28:15.993Z,38.30
2017-04-14T12:29:14.493Z,37.80
2017-04-14T12:30:12.986Z,38.40
2017-04-14T12:31:11.505Z,38.60
2017-04-14T12:32:09.961Z,38.70
2017-04-14T12:33:08.366Z,38.60
2017-04-14T12:34:07.532Z,38.80
2017-04-14T12:35:06.032Z,38.30
2017-04-14T12:36:04.652Z,38.70
2017-04-14T12:37:03.016Z,39.20
2017-04-14T12:38:02.221Z,40.00
2017-04-14T12:39:00.664Z,39.70